Time;durP1;ratioP1;P1;durP2;ratioP2;P2;SDS_P1;SDS_P2;PMS_P1;PMS_P2;Temp;Humidity;BMP_temperature;BMP_pressure;BME280_temperature;BME280_humidity;BME280_pressure;Samples;Min_cycle;Max_cycle;Signal;HPM_P1;HPM_P2
2021/04/03 00:01:21;;;;;;;8.63;5.05;;;;;;;6.63;53.92;96983.72;4892750;29;20526;-80
2021/04/03 00:03:48;;;;;;;5.88;4.65;;;;;;;6.59;53.67;96988.38;4893178;29;20056;-77
2021/04/03 00:06:15;;;;;;;10.13;5.25;;;;;;;6.54;53.48;96985.44;4894025;29;20056;-79
2021/04/03 00:08:42;;;;;;;8.32;4.78;;;;;;;6.50;53.90;96989.28;4893711;29;20053;-78
2021/04/03 00:11:09;;;;;;;8.32;4.70;;;;;;;6.51;53.58;96990.06;4893269;29;20057;-79
2021/04/03 00:13:39;;;;;;;10.20;5.55;;;;;;;6.51;53.71;96990.06;4892404;29;20691;-81
2021/04/03 00:16:07;;;;;;;7.50;4.53;;;;;;;6.52;53.67;96999.50;4891855;29;20049;-78
2021/04/03 00:18:34;;;;;;;6.00;4.63;;;;;;;6.50;53.51;96999.63;4891559;29;20060;-78
2021/04/03 00:21:00;;;;;;;10.50;4.63;;;;;;;6.50;53.63;96994.44;4893912;29;20059;-78
2021/04/03 00:23:28;;;;;;;8.10;4.45;;;;;;;6.49;54.32;96997.19;4893194;29;20057;-78
2021/04/03 00:25:55;;;;;;;7.13;4.57;;;;;;;6.44;53.73;96995.03;4893943;29;20072;-80
2021/04/03 00:28:21;;;;;;;9.02;5.05;;;;;;;6.36;53.39;96990.59;4893753;29;20056;-80
2021/04/03 00:30:48;;;;;;;8.27;4.75;;;;;;;6.32;53.49;96991.84;4892680;29;20057;-79
2021/04/03 00:33:15;;;;;;;6.60;4.50;;;;;;;6.29;53.94;96989.53;4891754;29;20057;-78
2021/04/03 00:35:44;;;;;;;5.50;4.13;;;;;;;6.30;53.79;96990.34;4892120;29;20401;-77
2021/04/03 00:38:11;;;;;;;7.85;4.22;;;;;;;6.28;53.19;96995.69;4891370;29;20060;-81
2021/04/03 00:40:40;;;;;;;8.65;4.20;;;;;;;6.21;53.49;96991.19;4891491;29;20053;-79
2021/04/03 00:43:09;;;;;;;6.28;4.35;;;;;;;6.14;53.10;96989.22;4890243;29;20064;-78
2021/04/03 00:45:36;;;;;;;6.88;3.80;;;;;;;6.08;53.23;96988.94;4890653;29;20432;-79
2021/04/03 00:48:03;;;;;;;10.25;4.30;;;;;;;6.03;52.42;96986.78;4890834;29;20060;-78
2021/04/03 00:50:33;;;;;;;6.97;4.22;;;;;;;6.01;52.50;96990.47;4889238;29;20049;-79
2021/04/03 00:52:59;;;;;;;6.60;4.07;;;;;;;5.97;52.21;96987.38;4889594;29;20439;-75
2021/04/03 00:55:26;;;;;;;6.35;3.70;;;;;;;5.93;52.67;96975.66;4888895;29;20505;-79
2021/04/03 00:57:55;;;;;;;9.10;4.13;;;;;;;5.88;52.28;96972.66;4888407;29;20500;-78
2021/04/03 01:00:21;;;;;;;7.05;3.67;;;;;;;5.84;52.26;96972.16;4888426;29;20057;-77
2021/04/03 01:02:48;;;;;;;7.28;3.90;;;;;;;5.77;52.32;96971.06;4888257;29;20167;-79
2021/04/03 01:05:18;;;;;;;6.95;3.80;;;;;;;5.72;52.50;96963.72;4888827;29;20072;-81
2021/04/03 01:07:47;;;;;;;6.97;3.95;;;;;;;5.72;52.73;96968.91;4888602;29;20090;-79
2021/04/03 01:10:16;;;;;;;5.57;3.95;;;;;;;5.70;52.61;96970.81;4887775;29;20049;-78
2021/04/03 01:12:52;;;;;;;5.70;3.58;;;;;;;5.70;53.09;96963.06;4888177;29;20068;-78
2021/04/03 01:15:26;;;;;;;6.85;4.00;;;;;;;5.67;53.09;96963.34;4889701;29;20514;-79
2021/04/03 01:18:05;;;;;;;7.13;3.92;;;;;;;5.66;52.99;96966.06;4888840;29;20049;-80
2021/04/03 01:20:40;;;;;;;6.07;3.55;;;;;;;5.62;53.04;96960.38;4888609;29;20049;-79
2021/04/03 01:23:48;;;;;;;7.60;3.95;;;;;;;5.64;52.97;96963.66;4887355;29;20060;-77
2021/04/03 01:26:36;;;;;;;4.00;3.40;;;;;;;5.68;52.82;96967.56;4890948;29;20065;-81
2021/04/03 01:29:23;;;;;;;6.65;3.75;;;;;;;5.68;52.96;96957.19;4897408;29;20082;-79
2021/04/03 01:31:52;;;;;;;8.07;3.65;;;;;;;5.71;52.58;96967.28;4896800;29;20061;-82
2021/04/03 01:34:23;;;;;;;6.53;3.80;;;;;;;5.71;52.43;96972.47;4896520;29;20064;-79
2021/04/03 01:36:52;;;;;;;7.10;3.40;;;;;;;5.72;53.08;96968.91;4891938;29;20523;-79
2021/04/03 01:39:22;;;;;;;5.57;3.60;;;;;;;5.77;52.70;96973.66;4892186;29;20060;-77
2021/04/03 01:41:53;;;;;;;7.13;3.75;;;;;;;5.77;52.72;96968.47;4891986;29;20053;-78
2021/04/03 01:44:24;;;;;;;6.60;3.22;;;;;;;5.80;52.86;96954.44;4891604;29;20059;-79
2021/04/03 01:46:52;;;;;;;9.52;4.03;;;;;;;5.82;52.55;96962.91;4891233;29;20053;-78
2021/04/03 01:49:23;;;;;;;6.32;3.85;;;;;;;5.82;52.47;96963.69;4891863;29;20063;-79
2021/04/03 01:51:51;;;;;;;7.60;3.72;;;;;;;5.84;52.54;96955.78;4891261;29;20052;-78
2021/04/03 01:54:20;;;;;;;9.25;3.63;;;;;;;5.84;52.22;96961.78;4890825;29;20504;-82
2021/04/03 01:56:49;;;;;;;5.90;3.83;;;;;;;5.84;52.15;96961.78;4891695;29;20103;-79
2021/04/03 01:59:17;;;;;;;11.05;4.72;;;;;;;5.83;52.32;96960.13;4891147;29;20053;-80
2021/04/03 02:01:45;;;;;;;7.03;3.75;;;;;;;5.86;52.31;96956.44;4890560;29;20053;-80
2021/04/03 02:04:14;;;;;;;7.45;4.00;;;;;;;5.87;52.30;96950.31;4890501;29;20559;-80
2021/04/03 02:06:42;;;;;;;7.30;3.25;;;;;;;5.88;52.26;96951.94;4890403;29;20154;-80
2021/04/03 02:09:11;;;;;;;7.65;3.53;;;;;;;5.90;51.73;96948.28;4890053;29;20053;-82
2021/04/03 02:11:39;;;;;;;6.22;3.58;;;;;;;5.94;52.03;96941.00;4890274;29;20053;-81
2021/04/03 02:14:07;;;;;;;6.05;3.28;;;;;;;5.96;51.83;96939.13;4889850;29;20053;-81
2021/04/03 02:16:36;;;;;;;5.15;3.40;;;;;;;5.98;51.89;96940.59;4889734;29;20053;-80
2021/04/03 02:19:05;;;;;;;9.07;3.50;;;;;;;6.06;51.54;96952.84;4888697;29;20140;-80
2021/04/03 02:21:34;;;;;;;5.32;3.55;;;;;;;6.10;51.69;96948.19;4887495;29;20057;-79
2021/04/03 02:24:01;;;;;;;5.32;3.38;;;;;;;6.09;51.36;96944.78;4890330;29;20511;-81
2021/04/03 02:26:30;;;;;;;8.18;4.43;;;;;;;6.06;51.73;96947.66;4886749;29;20045;-83
2021/04/03 02:28:57;;;;;;;6.78;3.88;;;;;;;6.04;51.67;96949.59;4885981;29;20416;-79
2021/04/03 02:31:24;;;;;;;5.80;3.33;;;;;;;6.00;51.71;96957.78;4885854;29;20053;-79
2021/04/03 02:33:51;;;;;;;3.40;3.10;;;;;;;6.00;51.78;96961.19;4885900;29;20053;-78
2021/04/03 02:36:19;;;;;;;5.53;3.65;;;;;;;6.00;52.02;96965.56;4887069;29;20057;-76
2021/04/03 02:38:48;;;;;;;8.07;3.40;;;;;;;5.98;51.99;96963.09;4886196;29;20053;-78
2021/04/03 02:41:16;;;;;;;5.93;3.35;;;;;;;5.95;51.77;96969.41;4887281;29;20116;-79
2021/04/03 02:43:50;;;;;;;3.88;3.08;;;;;;;5.94;52.18;96964.31;4886901;29;20076;-78
2021/04/03 02:46:23;;;;;;;3.83;2.75;;;;;;;5.91;52.12;96967.22;4887759;29;20053;-79
2021/04/03 02:49:01;;;;;;;6.00;3.85;;;;;;;5.91;51.84;96967.22;4886742;29;20504;-78
2021/04/03 02:51:32;;;;;;;8.57;3.60;;;;;;;5.89;52.11;96959.56;4887820;29;20675;-79
2021/04/03 02:54:01;;;;;;;5.18;3.58;;;;;;;5.88;52.08;96965.72;4886095;29;20053;-79
2021/04/03 02:56:29;;;;;;;7.25;3.35;;;;;;;5.90;51.77;96962.97;4886294;29;20068;-79
2021/04/03 02:58:58;;;;;;;5.68;3.10;;;;;;;5.92;51.52;96966.22;4886458;29;20057;-79
2021/04/03 03:01:25;;;;;;;7.68;3.45;;;;;;;5.95;51.92;96971.19;4885909;29;20457;-76
2021/04/03 03:03:52;;;;;;;10.75;3.88;;;;;;;5.98;51.84;96973.47;4886013;29;20420;-79
2021/04/03 03:06:20;;;;;;;4.40;3.25;;;;;;;6.02;51.92;96969.63;4886423;29;20053;-78
2021/04/03 03:08:48;;;;;;;4.93;3.40;;;;;;;6.07;52.11;96977.78;4885615;29;20052;-78
2021/04/03 03:11:17;;;;;;;5.93;3.30;;;;;;;6.09;51.56;96970.69;4884218;29;20075;-77
2021/04/03 03:13:44;;;;;;;9.40;4.50;;;;;;;6.07;51.19;96964.81;4885338;29;20045;-78
2021/04/03 03:16:14;;;;;;;4.88;3.75;;;;;;;6.05;51.86;96964.16;4888252;29;20548;-78
2021/04/03 03:18:41;;;;;;;6.65;3.47;;;;;;;6.01;51.64;96965.41;4887835;29;20059;-78
2021/04/03 03:21:08;;;;;;;4.82;3.25;;;;;;;5.95;51.56;96958.22;4887203;29;20049;-77
2021/04/03 03:23:35;;;;;;;7.70;3.22;;;;;;;5.92;51.60;96963.66;4887831;29;20053;-79
2021/04/03 03:26:01;;;;;;;7.63;4.50;;;;;;;5.94;51.94;96969.50;4888977;29;20060;-77
2021/04/03 03:28:31;;;;;;;5.45;3.30;;;;;;;5.94;51.86;96969.50;4888854;29;20079;-77
2021/04/03 03:30:58;;;;;;;8.13;3.72;;;;;;;5.94;51.76;96964.31;4887503;29;20059;-79
2021/04/03 03:33:25;;;;;;;5.85;3.72;;;;;;;5.95;51.78;96963.41;4887139;29;20053;-81
2021/04/03 03:35:51;;;;;;;6.63;3.38;;;;;;;5.93;51.96;96965.28;4886480;29;20052;-86
2021/04/03 03:38:19;;;;;;;7.00;3.45;;;;;;;5.91;51.78;96967.22;4885545;29;20064;-84
2021/04/03 03:40:48;;;;;;;5.38;3.88;;;;;;;5.86;52.32;96961.63;4885603;29;20049;-88
2021/04/03 03:43:17;;;;;;;5.18;3.58;;;;;;;5.84;51.88;96966.97;4885673;29;20063;-87
2021/04/03 03:45:50;;;;;;;6.10;3.78;;;;;;;5.85;51.78;96963.41;4885995;29;20080;-86
2021/04/03 03:48:18;;;;;;;4.93;3.63;;;;;;;5.86;51.97;96959.03;4886850;29;20063;-84
2021/04/03 03:50:54;;;;;;;8.55;3.03;;;;;;;5.86;51.69;96962.47;4887584;29;20184;-86
2021/04/03 03:53:48;;;;;;;4.10;2.95;;;;;;;5.85;51.82;96967.78;4887062;29;20079;-85
2021/04/03 03:59:33;;;;;;;4.95;3.35;;;;;;;5.89;51.63;96974.31;4889387;29;20121;-90
2021/04/03 04:02:23;;;;;;;4.95;3.08;;;;;;;5.92;51.90;96974.81;4889073;29;20120;-92
2021/04/03 04:05:09;;;;;;;5.97;3.58;;;;;;;5.95;51.75;96979.75;4888694;29;20087;-89
2021/04/03 04:08:01;;;;;;;8.90;3.80;;;;;;;5.93;51.71;96975.66;4888179;29;20057;-89
2021/04/03 04:10:42;;;;;;;8.23;4.10;;;;;;;5.91;51.84;96982.75;4887261;29;20057;-89
2021/04/03 04:13:24;;;;;;;5.55;3.88;;;;;;;5.87;51.64;96981.41;4887074;29;20077;-90
2021/04/03 04:16:15;;;;;;;6.97;3.40;;;;;;;5.84;51.79;96984.25;4887649;29;20061;-89
2021/04/03 04:19:05;;;;;;;6.35;3.88;;;;;;;5.81;52.02;96981.97;4888203;29;20527;-89
2021/04/03 04:21:53;;;;;;;4.25;3.13;;;;;;;5.83;52.19;96993.00;4888199;29;20059;-90
2021/04/03 04:24:40;;;;;;;7.20;3.72;;;;;;;5.81;51.83;96987.94;4888503;29;20077;-85
2021/04/03 04:27:27;;;;;;;7.28;3.28;;;;;;;5.81;51.75;96994.91;4886850;29;20063;-86
2021/04/03 04:30:08;;;;;;;6.53;3.70;;;;;;;5.78;51.71;96989.03;4886949;29;20233;-91
2021/04/03 04:33:03;;;;;;;5.05;3.55;;;;;;;5.75;52.09;96989.34;4890075;29;20076;-86
2021/04/03 04:35:51;;;;;;;6.25;3.85;;;;;;;5.72;52.07;96999.97;4889052;29;20069;-86
2021/04/03 04:38:33;;;;;;;7.90;3.50;;;;;;;5.69;52.12;97008.03;4889457;29;20492;-87
2021/04/03 04:41:13;;;;;;;5.55;3.75;;;;;;;5.62;51.89;97003.53;4888579;29;20108;-88
2021/04/03 04:44:02;;;;;;;5.88;3.30;;;;;;;5.57;52.28;97001.38;4888539;29;20056;-84
2021/04/03 04:46:38;;;;;;;6.63;3.90;;;;;;;5.57;52.27;97011.72;4889299;29;20057;-88
2021/04/03 04:49:24;;;;;;;6.20;3.38;;;;;;;5.60;52.50;97016.63;4890710;29;20057;-86
2021/04/03 04:52:26;;;;;;;8.02;3.25;;;;;;;5.63;52.52;97024.09;4890928;29;20157;-86
2021/04/03 04:55:06;;;;;;;6.55;3.58;;;;;;;5.65;52.16;97009.25;4890987;29;20065;-85
2021/04/03 04:57:44;;;;;;;6.28;3.67;;;;;;;5.65;52.73;97019.59;4891807;29;20053;-88
2021/04/03 05:00:38;;;;;;;5.97;3.30;;;;;;;5.70;52.22;97029.53;4889945;29;20049;-91
2021/04/03 05:03:19;;;;;;;5.47;3.58;;;;;;;5.70;52.49;97020.00;4890826;29;20057;-89
2021/04/03 05:06:03;;;;;;;4.85;3.75;;;;;;;5.67;52.35;97028.06;4889826;29;20072;-90
2021/04/03 05:09:01;;;;;;;6.78;3.97;;;;;;;5.64;52.81;97032.69;4890277;29;20064;-89
2021/04/03 05:11:40;;;;;;;6.32;4.45;;;;;;;5.62;52.84;97030.25;4889759;29;20045;-83
2021/04/03 05:14:29;;;;;;;8.80;3.83;;;;;;;5.58;52.81;97031.47;4891144;29;20105;-87
2021/04/03 05:17:14;;;;;;;7.05;4.15;;;;;;;5.54;53.08;97032.72;4889122;29;20057;-87
2021/04/03 05:20:09;;;;;;;8.88;3.80;;;;;;;5.55;53.11;97030.00;4889967;29;20424;-87
2021/04/03 05:22:51;;;;;;;8.25;3.90;;;;;;;5.58;53.51;97034.06;4889680;29;20057;-84
2021/04/03 05:25:35;;;;;;;7.70;4.18;;;;;;;5.63;52.96;97038.81;4887978;29;20551;-85
2021/04/03 05:28:19;;;;;;;5.22;3.72;;;;;;;5.66;53.18;97043.72;4889388;29;20063;-89
2021/04/03 05:30:59;;;;;;;10.75;4.60;;;;;;;5.68;52.82;97045.19;4896913;29;20045;-85
2021/04/03 05:33:46;;;;;;;7.15;4.15;;;;;;;5.69;53.25;97052.03;4890792;29;20076;-88
2021/04/03 05:36:31;;;;;;;5.43;4.13;;;;;;;5.71;52.96;97060.47;4888054;29;20063;-86
2021/04/03 05:39:14;;;;;;;7.15;3.95;;;;;;;5.77;53.30;97059.91;4888570;29;20077;-84
2021/04/03 05:41:57;;;;;;;6.70;4.22;;;;;;;5.77;53.01;97064.25;4887099;29;20060;-87
2021/04/03 05:44:34;;;;;;;;;;;;;;;5.80;52.97;97063.19;4887965;29;20049;-83
2021/04/03 05:50:01;;;;;;;7.88;3.75;;;;;;;5.75;52.97;97074.75;4879227;29;20125;-89
2021/04/03 05:52:58;;;;;;;8.18;3.88;;;;;;;5.75;52.78;97072.19;4886445;29;20052;-89
2021/04/03 05:55:49;;;;;;;4.88;3.72;;;;;;;5.75;52.98;97079.94;4886242;29;20060;-86
2021/04/03 05:58:40;;;;;;;10.02;4.15;;;;;;;5.77;52.99;97079.78;4885714;29;20049;-90
2021/04/03 06:01:32;;;;;;;7.30;3.95;;;;;;;5.78;53.09;97089.19;4886187;29;20157;-86
2021/04/03 06:04:08;;;;;;;6.82;3.97;;;;;;;5.78;53.44;97092.59;4885732;29;20064;-85
2021/04/03 06:06:43;;;;;;;5.70;3.63;;;;;;;5.79;52.96;97098.59;4888567;29;20076;-80
2021/04/03 06:09:09;;;;;;;9.38;4.32;;;;;;;5.78;53.15;97105.53;4892064;29;20052;-78
2021/04/03 06:11:44;;;;;;;5.97;3.90;;;;;;;5.81;53.69;97101.03;4888586;29;20406;-82
2021/04/03 06:14:12;;;;;;;9.68;4.70;;;;;;;5.81;53.24;97101.84;4890017;29;20049;-79
2021/04/03 06:16:40;;;;;;;6.57;4.00;;;;;;;5.81;53.60;97112.22;4889934;29;20188;-78
2021/04/03 06:19:08;;;;;;;6.53;4.13;;;;;;;5.81;53.55;97114.00;4889209;29;20057;-79
2021/04/03 06:21:35;;;;;;;6.40;4.05;;;;;;;5.78;53.73;97105.53;4888228;29;20496;-78
2021/04/03 06:24:02;;;;;;;9.00;4.18;;;;;;;5.80;53.58;97108.00;4887529;29;20059;-79
2021/04/03 06:26:29;;;;;;;9.95;4.28;;;;;;;5.81;53.75;97116.56;4885897;29;20061;-84
2021/04/03 06:29:18;;;;;;;6.70;4.20;;;;;;;5.83;54.08;97112.06;4886860;29;20049;-82
2021/04/03 06:31:51;;;;;;;7.35;3.63;;;;;;;5.86;54.35;97114.38;4887462;29;20532;-80
2021/04/03 06:34:29;;;;;;;8.13;4.10;;;;;;;5.86;54.15;97114.38;4886719;29;20057;-82
2021/04/03 06:36:56;;;;;;;6.38;3.65;;;;;;;5.85;54.02;97110.97;4886031;29;20049;-86
2021/04/03 06:39:23;;;;;;;9.25;4.82;;;;;;;5.85;53.95;97107.56;4887739;29;20053;-80
2021/04/03 06:41:50;;;;;;;6.47;4.13;;;;;;;5.85;54.03;97115.34;4887066;29;20061;-79
2021/04/03 06:44:17;;;;;;;6.13;3.58;;;;;;;5.83;54.03;97120.66;4889190;29;20045;-81
2021/04/03 06:46:46;;;;;;;8.73;4.15;;;;;;;5.86;54.21;97122.16;4892101;29;20091;-82
2021/04/03 06:49:13;;;;;;;5.15;4.15;;;;;;;5.86;54.14;97116.97;4890772;29;20053;-84
2021/04/03 06:51:41;;;;;;;7.35;3.85;;;;;;;5.87;54.42;97116.84;4891541;29;20060;-81
2021/04/03 06:54:09;;;;;;;6.45;4.20;;;;;;;5.89;54.47;97122.69;4890733;29;20053;-82
2021/04/03 06:56:36;;;;;;;8.60;3.85;;;;;;;5.93;54.05;97125.84;4892629;29;20053;-84
2021/04/03 06:59:05;;;;;;;6.25;3.70;;;;;;;5.95;54.79;97126.53;4891627;29;20052;-83
2021/04/03 07:01:41;;;;;;;4.43;3.63;;;;;;;5.99;54.33;97122.69;4891900;29;20061;-85
2021/04/03 07:04:15;;;;;;;6.40;3.42;;;;;;;6.02;54.29;97126.78;4891624;29;20053;-86
2021/04/03 07:06:44;;;;;;;5.65;4.30;;;;;;;6.03;54.52;97141.38;4890755;29;20227;-86
2021/04/03 07:09:11;;;;;;;5.45;3.45;;;;;;;5.99;54.08;97127.88;4889930;29;20053;-80
2021/04/03 07:11:39;;;;;;;8.10;3.67;;;;;;;5.93;53.97;97129.22;4889956;29;20049;-81
2021/04/03 07:14:07;;;;;;;6.18;3.75;;;;;;;5.99;54.47;97130.47;4889458;29;20078;-82
2021/04/03 07:16:35;;;;;;;7.18;4.07;;;;;;;6.02;54.60;97130.19;4889468;29;20061;-81
2021/04/03 07:19:05;;;;;;;5.70;3.47;;;;;;;6.02;54.53;97135.38;4891569;29;20052;-83
2021/04/03 07:21:32;;;;;;;8.95;3.65;;;;;;;6.03;54.44;97133.59;4890695;29;20056;-83
2021/04/03 07:24:00;;;;;;;6.82;3.45;;;;;;;6.07;54.39;97129.78;4889910;29;20060;-81
2021/04/03 07:26:26;;;;;;;5.93;3.10;;;;;;;6.12;54.15;97124.97;4890293;29;20246;-84
2021/04/03 07:28:53;;;;;;;6.97;4.47;;;;;;;6.15;54.51;97135.88;4890439;29;20064;-81
2021/04/03 07:31:40;;;;;;;6.53;4.20;;;;;;;6.19;54.35;97142.41;4890169;29;20136;-84
2021/04/03 07:34:08;;;;;;;7.13;3.58;;;;;;;6.22;54.19;97140.50;4888358;29;20424;-79
2021/04/03 07:36:37;;;;;;;4.75;3.00;;;;;;;6.29;53.93;97146.75;4889086;29;20439;-79
2021/04/03 07:39:06;;;;;;;10.88;3.58;;;;;;;6.34;53.65;97157.50;4888399;29;20056;-81
2021/04/03 07:41:37;;;;;;;6.60;2.70;;;;;;;6.44;53.42;97158.28;4889555;29;20444;-80
2021/04/03 07:44:14;;;;;;;5.57;3.08;;;;;;;6.52;52.73;97162.78;4889274;29;20053;-81
2021/04/03 07:46:43;;;;;;;5.28;3.22;;;;;;;6.57;53.19;97166.56;4890177;29;20181;-81
2021/04/03 07:49:11;;;;;;;9.15;3.88;;;;;;;6.65;52.58;97163.28;4889301;29;20148;-80
2021/04/03 07:51:44;;;;;;;8.40;2.95;;;;;;;6.69;52.63;97161.19;4888703;29;20575;-82
2021/04/03 07:54:26;;;;;;;5.35;3.17;;;;;;;6.84;53.20;97164.94;4890389;29;20053;-83
2021/04/03 07:56:55;;;;;;;5.55;3.03;;;;;;;7.03;52.47;97161.44;4890652;29;20053;-83
2021/04/03 07:59:51;;;;;;;6.20;2.60;;;;;;;7.18;52.52;97164.34;4890519;29;20071;-82
2021/04/03 08:02:29;;;;;;;7.38;2.75;;;;;;;7.35;52.41;97163.56;4890254;29;20049;-86
2021/04/03 08:04:56;;;;;;;7.32;3.47;;;;;;;7.54;52.12;97159.16;4889487;29;20056;-84
2021/04/03 08:07:25;;;;;;;6.75;3.50;;;;;;;7.72;51.75;97164.34;4894915;29;20077;-81
2021/04/03 08:09:52;;;;;;;5.90;3.08;;;;;;;7.84;51.17;97165.75;4894610;29;20049;-80
2021/04/03 08:12:25;;;;;;;4.07;2.65;;;;;;;7.90;49.10;97164.34;4892795;29;20051;-80
2021/04/03 08:14:56;;;;;;;5.88;2.80;;;;;;;7.96;49.97;97168.91;4889020;29;20132;-80
2021/04/03 08:17:24;;;;;;;6.95;2.67;;;;;;;8.05;49.54;97162.84;4893621;29;20056;-79
2021/04/03 08:19:55;;;;;;;6.18;2.92;;;;;;;8.16;49.18;97165.19;4892776;29;20501;-78
2021/04/03 08:22:22;;;;;;;9.00;3.50;;;;;;;8.36;49.21;97168.38;4893324;29;20056;-79
2021/04/03 08:25:00;;;;;;;5.03;2.47;;;;;;;8.52;47.56;97159.88;4892334;29;20056;-80
2021/04/03 08:27:35;;;;;;;3.58;2.75;;;;;;;8.63;47.61;97161.41;4894058;29;20144;-78
2021/04/03 08:30:20;;;;;;;4.97;2.58;;;;;;;8.72;48.17;97163.06;4892922;29;20112;-80
2021/04/03 08:33:05;;;;;;;5.65;2.90;;;;;;;8.86;45.94;97170.28;4893410;29;20061;-76
2021/04/03 08:35:32;;;;;;;6.03;2.88;;;;;;;8.95;45.91;97165.94;4891498;29;20059;-79
2021/04/03 08:38:23;;;;;;;4.15;2.20;;;;;;;9.00;46.18;97168.88;4891337;29;20080;-77
2021/04/03 08:40:55;;;;;;;3.88;1.95;;;;;;;9.22;46.46;97166.66;4890569;29;20064;-79
2021/04/03 08:43:24;;;;;;;3.38;2.30;;;;;;;9.46;44.41;97169.31;4892387;29;20051;-78
2021/04/03 08:45:52;;;;;;;5.53;2.63;;;;;;;9.77;44.73;97176.50;4891345;29;20057;-79
2021/04/03 08:48:19;;;;;;;4.50;2.28;;;;;;;10.34;43.35;97177.47;4890903;29;20064;-76
2021/04/03 08:50:48;;;;;;;6.28;2.30;;;;;;;10.85;41.58;97175.38;4889572;29;20068;-77
2021/04/03 08:53:15;;;;;;;3.53;1.92;;;;;;;11.21;41.23;97174.88;4888669;29;20528;-78
2021/04/03 08:55:42;;;;;;;2.08;1.70;;;;;;;11.47;39.99;97171.97;4888193;29;20049;-77
2021/04/03 08:58:10;;;;;;;4.72;2.20;;;;;;;11.55;39.35;97183.19;4888371;29;20063;-77
2021/04/03 09:00:37;;;;;;;7.97;2.58;;;;;;;11.54;39.20;97186.78;4887777;29;20045;-78
2021/04/03 09:03:04;;;;;;;6.95;2.22;;;;;;;11.47;39.05;97195.47;4885934;29;20064;-78
2021/04/03 09:05:30;;;;;;;4.97;2.00;;;;;;;11.35;39.86;97197.69;4888556;29;20057;-78
2021/04/03 09:07:57;;;;;;;3.67;2.40;;;;;;;11.37;39.93;97194.88;4889540;29;20057;-87
2021/04/03 09:10:25;;;;;;;3.17;1.75;;;;;;;11.43;40.55;97189.78;4887727;29;20072;-81
2021/04/03 09:12:53;;;;;;;5.68;2.90;;;;;;;11.56;39.87;97202.28;4888979;29;20147;-83
2021/04/03 09:15:30;;;;;;;5.38;2.15;;;;;;;11.63;38.84;97205.84;4888314;29;20082;-77
2021/04/03 09:17:59;;;;;;;3.05;1.70;;;;;;;11.60;38.82;97205.34;4887746;29;20076;-77
2021/04/03 09:20:28;;;;;;;4.38;2.60;;;;;;;11.51;37.76;97213.25;4887419;29;20080;-76
2021/04/03 09:23:04;;;;;;;12.05;2.97;;;;;;;11.44;37.27;97207.09;4887240;29;20063;-86
2021/04/03 09:25:31;;;;;;;5.20;2.22;;;;;;;11.40;38.49;97207.59;4888682;29;20061;-89
2021/04/03 09:28:01;;;;;;;4.43;1.95;;;;;;;11.50;38.53;97205.56;4894754;29;20057;-84
2021/04/03 09:30:34;;;;;;;3.63;2.00;;;;;;;11.50;37.41;97206.41;4892733;29;20063;-84
2021/04/03 09:33:21;;;;;;;5.25;2.25;;;;;;;11.52;37.02;97217.50;4891990;29;20508;-86
2021/04/03 09:35:48;;;;;;;5.22;2.28;;;;;;;11.39;38.03;97212.03;4892581;29;20075;-86
2021/04/03 09:38:17;;;;;;;4.65;2.08;;;;;;;11.24;38.14;97217.16;4891320;29;20057;-82
2021/04/03 09:40:45;;;;;;;4.57;2.38;;;;;;;11.12;38.43;97216.69;4892006;29;20079;-80
2021/04/03 09:43:13;;;;;;;8.35;2.90;;;;;;;11.01;38.96;97222.28;4891972;29;20166;-79
2021/04/03 09:45:57;;;;;;;3.85;2.20;;;;;;;11.10;39.22;97220.47;4891942;29;20053;-79
2021/04/03 09:48:23;;;;;;;8.05;2.65;;;;;;;11.18;38.61;97219.63;4893732;29;20053;-82
2021/04/03 09:50:50;;;;;;;3.42;2.13;;;;;;;11.21;38.67;97211.44;4890779;29;20057;-79
2021/04/03 09:53:17;;;;;;;5.38;2.17;;;;;;;11.26;39.24;97220.41;4889028;29;20442;-80
2021/04/03 09:55:43;;;;;;;4.47;2.90;;;;;;;11.42;38.91;97218.69;4891379;29;20056;-79
2021/04/03 09:58:10;;;;;;;5.75;2.03;;;;;;;11.61;38.45;97212.19;4892703;29;20060;-80
2021/04/03 10:00:36;;;;;;;5.75;2.13;;;;;;;11.85;38.31;97199.00;4893301;29;20049;-80
2021/04/03 10:03:04;;;;;;;3.47;2.25;;;;;;;12.10;37.49;97217.13;4893543;29;20515;-79
2021/04/03 10:05:30;;;;;;;4.88;2.13;;;;;;;12.22;37.00;97215.69;4893356;29;20057;-80
2021/04/03 10:07:57;;;;;;;4.93;2.55;;;;;;;12.29;36.90;97210.59;4894359;29;20053;-80
2021/04/03 10:10:24;;;;;;;5.32;1.85;;;;;;;12.30;36.02;97226.09;4894780;29;20068;-80
2021/04/03 10:12:51;;;;;;;9.13;2.67;;;;;;;12.20;36.45;97222.09;4894861;29;20052;-79
2021/04/03 10:15:18;;;;;;;3.33;2.67;;;;;;;12.12;36.15;97229.03;4895472;29;20052;-80
2021/04/03 10:17:44;;;;;;;5.25;2.00;;;;;;;12.07;35.81;97214.84;4892744;29;20063;-82
2021/04/03 10:20:13;;;;;;;5.75;2.50;;;;;;;12.06;35.67;97223.69;4893336;29;20060;-79
2021/04/03 10:22:39;;;;;;;4.13;2.03;;;;;;;11.99;35.48;97217.53;4890765;29;20089;-80
2021/04/03 10:25:09;;;;;;;8.68;2.30;;;;;;;11.81;38.13;97223.84;4892398;29;20057;-80
2021/04/03 10:27:35;;;;;;;3.58;2.13;;;;;;;11.61;36.07;97222.66;4892203;29;20056;-80
2021/04/03 10:30:03;;;;;;;4.40;2.53;;;;;;;11.46;35.93;97220.78;4890791;29;20056;-82
2021/04/03 10:32:29;;;;;;;5.53;2.22;;;;;;;11.36;35.88;97216.75;4888102;29;20045;-77
2021/04/03 10:34:56;;;;;;;4.82;2.35;;;;;;;11.27;36.10;97216.00;4890243;29;20059;-82
2021/04/03 10:37:23;;;;;;;2.47;1.80;;;;;;;11.18;36.09;97211.81;4890910;29;20519;-81
2021/04/03 10:39:50;;;;;;;3.17;2.10;;;;;;;11.13;36.34;97215.72;4890773;29;20057;-82
2021/04/03 10:42:17;;;;;;;3.53;1.70;;;;;;;11.06;36.74;97224.41;4890375;29;20135;-79
2021/04/03 10:44:43;;;;;;;5.43;2.22;;;;;;;11.02;36.77;97231.78;4889043;29;20135;-79
2021/04/03 10:47:10;;;;;;;3.67;2.42;;;;;;;10.89;37.35;97232.31;4888510;29;20057;-79
2021/04/03 10:49:37;;;;;;;5.50;2.58;;;;;;;10.72;37.68;97239.34;4889686;29;20057;-79
2021/04/03 10:52:04;;;;;;;3.97;2.40;;;;;;;10.54;37.92;97241.34;4890876;29;20052;-79
2021/04/03 10:54:31;;;;;;;6.95;2.40;;;;;;;10.44;38.37;97240.72;4890428;29;20092;-78
2021/04/03 10:56:58;;;;;;;7.13;2.88;;;;;;;10.35;38.71;97241.69;4888611;29;20504;-79
2021/04/03 10:59:24;;;;;;;3.85;2.50;;;;;;;10.21;38.65;97243.97;4889673;29;20063;-79
2021/04/03 11:01:51;;;;;;;6.35;2.20;;;;;;;10.04;38.71;97242.34;4891662;29;20063;-80
2021/04/03 11:04:18;;;;;;;3.60;2.28;;;;;;;9.91;39.16;97245.41;4891345;29;20056;-80
2021/04/03 11:06:44;;;;;;;4.65;2.65;;;;;;;9.86;39.34;97242.44;4891025;29;20150;-78
2021/04/03 11:09:12;;;;;;;6.43;2.60;;;;;;;9.86;39.96;97239.84;4890168;29;20063;-79
2021/04/03 11:11:39;;;;;;;4.85;2.53;;;;;;;9.87;40.19;97242.31;4890093;29;20045;-78
2021/04/03 11:14:06;;;;;;;7.88;3.20;;;;;;;10.03;41.48;97231.06;4889544;29;20540;-77
2021/04/03 11:16:33;;;;;;;5.78;2.83;;;;;;;10.25;40.90;97229.59;4890494;29;20579;-78
2021/04/03 11:18:59;;;;;;;10.10;4.15;;;;;;;10.41;40.17;97241.84;4888877;29;20218;-77
2021/04/03 11:21:26;;;;;;;4.25;2.58;;;;;;;10.50;39.51;97234.84;4887297;29;20064;-77
2021/04/03 11:23:53;;;;;;;4.60;2.53;;;;;;;10.55;39.68;97232.53;4887260;29;20053;-78
2021/04/03 11:26:19;;;;;;;7.60;4.45;;;;;;;10.55;39.25;97235.13;4888571;29;20059;-80
2021/04/03 11:28:47;;;;;;;7.57;2.78;;;;;;;10.51;38.94;97232.03;4889465;29;20060;-79
2021/04/03 11:31:13;;;;;;;3.65;2.42;;;;;;;10.49;39.39;97233.19;4889670;29;20045;-79
2021/04/03 11:33:40;;;;;;;5.90;2.40;;;;;;;10.57;39.99;97232.38;4888369;29;20064;-78
2021/04/03 11:36:07;;;;;;;5.55;2.13;;;;;;;10.71;39.55;97226.47;4889088;29;20057;-77
2021/04/03 11:38:34;;;;;;;3.53;2.50;;;;;;;10.88;38.16;97222.00;4886387;29;20136;-79
2021/04/03 11:41:01;;;;;;;3.08;1.92;;;;;;;11.01;38.07;97222.28;4887993;29;20049;-80
2021/04/03 11:43:28;;;;;;;3.92;1.77;;;;;;;11.19;39.05;97209.00;4888966;29;20409;-78
2021/04/03 11:45:56;;;;;;;3.10;1.80;;;;;;;11.40;36.27;97213.63;4889201;29;20057;-79
2021/04/03 11:48:23;;;;;;;3.10;1.85;;;;;;;11.47;36.00;97213.75;4891875;29;20493;-77
2021/04/03 11:50:49;;;;;;;3.20;1.75;;;;;;;11.45;35.58;97206.09;4890945;29;20059;-78
2021/04/03 11:53:16;;;;;;;2.58;1.63;;;;;;;11.54;36.03;97220.75;4891323;29;20064;-80
2021/04/03 11:55:43;;;;;;;5.50;2.40;;;;;;;11.63;35.23;97205.00;4893361;29;20059;-80
2021/04/03 11:58:09;;;;;;;4.50;1.95;;;;;;;11.51;35.67;97212.44;4893374;29;20095;-78
2021/04/03 12:00:36;;;;;;;7.60;2.90;;;;;;;11.43;36.18;97215.91;4893139;29;20064;-79
2021/04/03 12:03:04;;;;;;;4.40;1.77;;;;;;;11.36;36.33;97216.75;4893034;29;20049;-79
2021/04/03 12:05:30;;;;;;;7.63;2.20;;;;;;;11.32;35.96;97205.84;4893538;29;20083;-81
2021/04/03 12:07:57;;;;;;;2.28;1.42;;;;;;;11.24;35.91;97204.09;4893687;29;20057;-84